Aeroporto :
LOGIN :

Iscrizione | Disclaimer

   EN    FR    IT 

 










Sommario :    VFR   VFR Marginale   IFR   IFR Intensivo   IFR Molto Intensivo
Visibilità : 
Base nubi : 
>= 8 km
>= 3000ft
5 / 8 km
1000 / 3000 ft
1500m / 5 km
500 / 1000 ft
800 / 1500m
200 / 500 ft
< 800m
< 200 ft
Simboli :   Temporali  Nebbia  Neve Forte  Precipitazioni Forti  Vento > 20 kt
SIGMETs :   Varie  Temporali  Ghiacco  Turbolenza  Onda orograficha  Ceneri Vulcaniche






- Altitudine del aeroporto : 36 ft
- Codice IATA : LTQ


LFAT - Le Touquet

ULTIMO METAR :
  • 241200Z AUTO 23017G28KT 180V270 9999 BKN025 OVC033 11/08 Q1013 TEMPO 23020G40KT

METARs OBSOLETI :
  • 241130Z AUTO 24017G27KT 9999 OVC030 11/09 Q1014 TEMPO 23020G40KT BECMG BKN012
  • 241100Z AUTO 24017G29KT 200V270 9999 BKN009 BKN013 OVC031 11/10 Q1014 TEMPO 23020G40KT BECMG BKN012
  • 241030Z AUTO 23014KT 190V260 9999 BKN009/// OVC013/// 11/10 Q1014 TEMPO 23020G40KT BECMG BKN012
  • 241000Z AUTO 22014G25KT 200V260 8000 BKN006 OVC010 11/10 Q1015 TEMPO 23020G40KT BECMG BKN012
  • 240930Z AUTO 23013KT 200V260 8000 OVC005 10/10 Q1015 TEMPO 23020G40KT BECMG BKN012

TAF TAF LFAT
Valido dal 24 a 12 ore il 24 a 21 ore UTC


241100Z 2412/2421 24015G30KT 9999 BKN020
PROB40
TEMPO 2412/2418 23020G40KT
TEMPO 2415/2420 3000 RA BKN010
ATIS : +33 3 21 06 62 84



MetMap, La meteo Aeronautica in un colpo d'occhio ! - Copyright ORBIFLY Dicembre 2007 - Disclaimer

ORBIFLY MET'MAP TEAM :

Programmazione e sviluppo : Alexandra Zaïnal
Concezione : Baudouin d'Aumeries
Aiuto per la programmazione : Marc-Olivier Méhu
Supporto tecnico e logistico : Manuel Goepfert
Aiuto per la traduzione : Arnaldo La Scala

Contatto : metmap@orbifly.com




FONTI E CREDITI :

   NOAA